createdAt,value
2023-10-06T00:02:32.264Z,9.25
2023-10-06T00:05:59.453Z,5.90
2023-10-06T00:09:30.454Z,11.77
2023-10-06T00:13:00.442Z,9.77
2023-10-06T00:16:28.331Z,6.82
2023-10-06T00:19:58.310Z,4.47
2023-10-06T00:23:29.001Z,5.13
2023-10-06T00:26:56.669Z,6.18
2023-10-06T00:30:22.992Z,7.20
2023-10-06T00:33:48.405Z,5.32
2023-10-06T00:37:17.525Z,6.90
2023-10-06T00:40:47.913Z,8.88
2023-10-06T00:44:14.035Z,6.90
2023-10-06T00:47:40.675Z,8.05
2023-10-06T00:51:08.164Z,7.55
2023-10-06T00:54:36.620Z,6.43
2023-10-06T00:58:02.993Z,9.00
2023-10-06T01:01:32.380Z,9.32
2023-10-06T01:04:58.293Z,5.45
2023-10-06T01:08:25.643Z,10.93
2023-10-06T01:11:56.816Z,9.88
2023-10-06T01:15:22.815Z,10.95
2023-10-06T01:18:52.128Z,10.38
2023-10-06T01:22:26.171Z,11.30
2023-10-06T01:25:55.890Z,8.63
2023-10-06T01:29:23.763Z,10.70
2023-10-06T01:32:52.597Z,14.15
2023-10-06T01:36:23.328Z,9.95
2023-10-06T01:39:52.972Z,12.10
2023-10-06T01:43:24.057Z,8.00
2023-10-06T01:46:54.907Z,9.90
2023-10-06T01:50:21.653Z,5.57
2023-10-06T01:53:51.431Z,6.28
2023-10-06T01:57:23.349Z,9.75
2023-10-06T02:00:49.847Z,7.32
2023-10-06T02:04:16.441Z,13.77
2023-10-06T02:07:46.129Z,7.20
2023-10-06T02:11:14.035Z,10.23
2023-10-06T02:14:42.654Z,8.70
2023-10-06T02:18:14.065Z,7.32
2023-10-06T02:21:45.727Z,6.00
2023-10-06T02:25:15.102Z,7.05
2023-10-06T02:28:45.292Z,13.18
2023-10-06T02:32:14.489Z,9.60
2023-10-06T02:35:46.365Z,8.45
2023-10-06T02:39:17.295Z,6.18
2023-10-06T02:42:48.895Z,6.88
2023-10-06T02:46:17.247Z,7.03
2023-10-06T02:49:50.499Z,6.80
2023-10-06T02:53:21.911Z,7.63
2023-10-06T02:56:48.583Z,7.10
2023-10-06T03:00:26.876Z,7.85
2023-10-06T03:03:54.117Z,6.80
2023-10-06T03:07:23.708Z,7.32
2023-10-06T03:10:51.170Z,7.93
2023-10-06T03:14:16.633Z,13.25
2023-10-06T03:17:42.602Z,8.35
2023-10-06T03:21:14.913Z,7.30
2023-10-06T03:24:55.191Z,10.73
2023-10-06T03:28:21.310Z,5.80
2023-10-06T03:31:49.456Z,7.57
2023-10-06T03:35:23.395Z,8.02
2023-10-06T03:38:56.763Z,5.03
2023-10-06T03:42:29.190Z,5.00
2023-10-06T03:49:21.621Z,9.80
2023-10-06T03:52:48.801Z,8.65
2023-10-06T03:56:14.900Z,8.25
2023-10-06T03:59:47.360Z,7.78
2023-10-06T04:03:15.304Z,6.65
2023-10-06T04:06:41.418Z,12.52
2023-10-06T04:10:09.392Z,10.60
2023-10-06T04:13:40.327Z,6.13
2023-10-06T04:17:13.846Z,9.60
2023-10-06T04:20:42.451Z,10.80
2023-10-06T04:24:08.295Z,9.18
2023-10-06T04:27:35.273Z,5.35
2023-10-06T04:31:02.750Z,9.68
2023-10-06T04:34:38.320Z,8.73
2023-10-06T04:38:07.421Z,7.63
2023-10-06T04:41:33.264Z,5.50
2023-10-06T04:44:58.606Z,7.47
2023-10-06T04:48:24.773Z,8.13
2023-10-06T04:51:52.790Z,9.27
2023-10-06T04:55:19.740Z,7.75
2023-10-06T04:58:45.499Z,5.40
2023-10-06T05:02:12.870Z,6.10
2023-10-06T05:05:39.943Z,8.80
2023-10-06T05:09:08.744Z,8.40
2023-10-06T05:12:34.269Z,6.70
2023-10-06T05:16:02.621Z,12.00
2023-10-06T05:19:28.435Z,5.07
2023-10-06T05:22:54.977Z,7.22
2023-10-06T05:26:23.192Z,12.05
2023-10-06T05:29:49.103Z,7.57
2023-10-06T05:33:15.933Z,4.50
2023-10-06T05:36:42.448Z,10.77
2023-10-06T05:40:13.496Z,8.82
2023-10-06T05:43:42.815Z,8.68
2023-10-06T05:47:09.892Z,11.63
2023-10-06T05:50:37.429Z,11.68
2023-10-06T05:54:04.046Z,10.57
2023-10-06T05:57:32.642Z,8.48
2023-10-06T06:01:07.580Z,11.80
2023-10-06T06:04:39.218Z,12.68
2023-10-06T06:08:07.328Z,9.93
2023-10-06T06:11:35.212Z,8.15
2023-10-06T06:15:01.384Z,8.70
2023-10-06T06:18:30.671Z,12.38
2023-10-06T06:21:58.447Z,10.55
2023-10-06T06:25:24.790Z,13.77
2023-10-06T06:28:50.576Z,12.82
2023-10-06T06:32:17.302Z,14.38
2023-10-06T06:35:46.336Z,14.20
2023-10-06T06:39:12.869Z,12.88
2023-10-06T06:42:38.251Z,14.90
2023-10-06T06:46:04.096Z,10.93
2023-10-06T06:49:29.617Z,11.45
2023-10-06T06:53:01.223Z,12.55
2023-10-06T06:56:30.830Z,12.07
2023-10-06T06:59:57.067Z,9.55
2023-10-06T07:03:22.618Z,8.38
2023-10-06T07:06:48.532Z,9.32
2023-10-06T07:10:21.467Z,8.48
2023-10-06T07:13:47.428Z,7.88
2023-10-06T07:17:12.915Z,9.18
2023-10-06T07:20:38.790Z,15.90
2023-10-06T07:24:04.901Z,13.65
2023-10-06T07:27:35.518Z,14.50
2023-10-06T07:31:00.889Z,16.17
2023-10-06T07:34:26.806Z,19.00
2023-10-06T07:37:53.877Z,19.83
2023-10-06T07:41:25.021Z,17.50
2023-10-06T07:44:53.314Z,23.77
2023-10-06T07:48:19.732Z,25.10
2023-10-06T07:51:46.819Z,19.42
2023-10-06T07:55:13.952Z,26.40
2023-10-06T07:58:39.855Z,24.80
2023-10-06T08:02:10.396Z,24.27
2023-10-06T08:05:36.050Z,24.20
2023-10-06T08:09:01.900Z,20.38
2023-10-06T08:12:28.670Z,20.70
2023-10-06T08:15:54.528Z,20.45
2023-10-06T08:19:22.898Z,24.73
2023-10-06T08:22:50.569Z,22.83
2023-10-06T08:26:16.141Z,20.00
2023-10-06T08:29:43.191Z,21.45
2023-10-06T08:33:10.686Z,19.90
2023-10-06T08:36:42.840Z,19.48
2023-10-06T08:40:11.351Z,19.50
2023-10-06T08:43:41.152Z,17.85
2023-10-06T08:47:20.378Z,22.02
2023-10-06T08:50:54.926Z,22.38
2023-10-06T08:54:23.471Z,18.27
2023-10-06T08:57:50.323Z,18.90
2023-10-06T09:01:16.891Z,18.38
2023-10-06T09:04:42.933Z,23.27
2023-10-06T09:08:09.190Z,17.33
2023-10-06T09:11:44.967Z,21.17
2023-10-06T09:15:11.089Z,18.83
2023-10-06T09:18:41.649Z,16.13
2023-10-06T09:22:08.948Z,15.80
2023-10-06T09:25:47.662Z,14.57
2023-10-06T09:29:16.066Z,11.38
2023-10-06T09:32:42.585Z,15.93
2023-10-06T09:36:12.687Z,13.32
2023-10-06T09:39:40.035Z,13.93
2023-10-06T09:43:06.976Z,13.77
2023-10-06T09:46:37.064Z,13.38
2023-10-06T09:50:04.234Z,11.23
2023-10-06T09:53:31.886Z,12.32
2023-10-06T09:56:58.877Z,12.02
2023-10-06T10:00:27.836Z,11.40
2023-10-06T10:03:56.652Z,10.52
2023-10-06T10:07:24.823Z,16.40
2023-10-06T10:10:51.338Z,11.40
2023-10-06T10:14:38.282Z,14.40
2023-10-06T10:18:06.005Z,10.60
2023-10-06T10:21:36.465Z,12.85
2023-10-06T10:25:23.918Z,10.23
2023-10-06T10:29:07.049Z,9.35
2023-10-06T10:32:44.741Z,9.18
2023-10-06T10:36:28.607Z,10.82
2023-10-06T10:39:58.127Z,10.85
2023-10-06T10:43:25.025Z,12.45
2023-10-06T10:46:54.007Z,9.43
2023-10-06T10:50:21.522Z,11.27
2023-10-06T10:53:52.436Z,15.02
2023-10-06T10:57:24.390Z,15.27
2023-10-06T11:01:05.166Z,12.18
2023-10-06T11:04:37.024Z,13.15
2023-10-06T11:08:06.998Z,13.55
2023-10-06T11:11:36.543Z,10.63
2023-10-06T11:15:15.293Z,11.02
2023-10-06T11:18:42.716Z,11.38
2023-10-06T11:22:15.080Z,9.23
2023-10-06T11:25:50.555Z,10.73
2023-10-06T11:29:17.091Z,9.10
2023-10-06T11:32:46.358Z,10.10
2023-10-06T11:36:12.717Z,9.43
2023-10-06T11:39:39.135Z,7.90
2023-10-06T11:43:14.051Z,9.02
2023-10-06T11:46:51.343Z,10.18
2023-10-06T11:50:32.957Z,9.73
2023-10-06T11:54:04.933Z,7.40
2023-10-06T11:57:46.722Z,9.80
2023-10-06T12:01:27.335Z,9.35
2023-10-06T12:04:53.088Z,9.45
2023-10-06T12:08:22.117Z,10.82
2023-10-06T12:11:48.132Z,8.20
2023-10-06T12:15:14.587Z,10.98
2023-10-06T12:18:44.671Z,7.10
2023-10-06T12:22:14.808Z,7.88
2023-10-06T12:25:45.699Z,8.40
2023-10-06T12:29:18.945Z,8.10
2023-10-06T12:32:47.046Z,7.47
2023-10-06T12:36:14.137Z,7.85
2023-10-06T12:39:40.965Z,10.18
2023-10-06T12:43:11.223Z,10.07
2023-10-06T12:46:38.917Z,7.20
2023-10-06T12:50:07.803Z,7.75
2023-10-06T12:53:37.722Z,7.97
2023-10-06T12:57:06.035Z,9.13
2023-10-06T13:00:34.305Z,10.35
2023-10-06T13:04:02.933Z,9.48
2023-10-06T13:07:32.629Z,8.32
2023-10-06T13:11:05.134Z,7.72
2023-10-06T13:14:32.722Z,11.20
2023-10-06T13:18:01.904Z,8.10
2023-10-06T13:21:30.779Z,8.38
2023-10-06T13:24:57.844Z,8.27
2023-10-06T13:28:23.660Z,9.98
2023-10-06T13:31:50.040Z,7.03
2023-10-06T13:35:20.874Z,7.22
2023-10-06T13:38:47.599Z,7.82
2023-10-06T13:42:16.800Z,8.07
2023-10-06T13:45:44.679Z,7.35
2023-10-06T13:49:10.198Z,4.97
2023-10-06T13:52:39.026Z,12.23
2023-10-06T13:56:04.653Z,8.43
2023-10-06T13:59:31.527Z,8.20
2023-10-06T14:02:57.868Z,5.50
2023-10-06T14:06:27.267Z,5.70
2023-10-06T14:09:58.219Z,7.15
2023-10-06T14:13:27.662Z,5.43
2023-10-06T14:16:55.793Z,6.25
2023-10-06T14:20:31.232Z,3.92
2023-10-06T14:23:58.960Z,5.55
2023-10-06T14:27:28.640Z,3.85
2023-10-06T14:30:57.583Z,5.53
2023-10-06T14:35:00.666Z,7.18
2023-10-06T14:38:41.318Z,9.27
2023-10-06T14:42:19.772Z,8.48
2023-10-06T14:46:03.633Z,10.60
2023-10-06T14:49:29.716Z,6.35
2023-10-06T14:52:55.708Z,6.93
2023-10-06T14:56:23.506Z,5.03
2023-10-06T14:59:51.487Z,6.93
2023-10-06T15:03:23.694Z,8.30
2023-10-06T15:06:49.273Z,10.27
2023-10-06T15:10:19.750Z,9.60
2023-10-06T15:13:48.358Z,7.18
2023-10-06T15:17:16.013Z,6.70
2023-10-06T15:20:44.372Z,6.50
2023-10-06T15:24:12.254Z,8.23
2023-10-06T15:27:38.086Z,7.72
2023-10-06T15:31:06.086Z,11.20
2023-10-06T15:34:35.272Z,9.68
2023-10-06T15:38:05.217Z,10.90
2023-10-06T15:41:34.364Z,11.18
2023-10-06T15:45:01.610Z,12.05
2023-10-06T15:48:29.712Z,11.25
2023-10-06T15:51:55.485Z,12.30
2023-10-06T15:55:23.573Z,12.25
2023-10-06T15:58:49.867Z,11.30
2023-10-06T16:02:15.499Z,9.55
2023-10-06T16:05:42.851Z,10.98
2023-10-06T16:09:11.895Z,9.45
2023-10-06T16:12:40.709Z,10.25
2023-10-06T16:16:12.275Z,11.02
2023-10-06T16:19:40.625Z,10.18
2023-10-06T16:23:07.722Z,6.75
2023-10-06T16:26:33.695Z,10.40
2023-10-06T16:30:01.892Z,8.05
2023-10-06T16:33:28.160Z,9.20
2023-10-06T16:36:54.026Z,9.40
2023-10-06T16:40:19.855Z,9.27
2023-10-06T16:43:45.967Z,9.75
2023-10-06T16:47:14.495Z,7.30
2023-10-06T16:50:43.504Z,8.25
2023-10-06T16:54:11.488Z,6.53
2023-10-06T16:57:37.230Z,8.90
2023-10-06T17:01:09.390Z,7.85
2023-10-06T17:04:41.348Z,7.73
2023-10-06T17:08:07.472Z,5.18
2023-10-06T17:11:32.979Z,4.57
2023-10-06T17:14:59.141Z,5.40
2023-10-06T17:18:24.632Z,5.50
2023-10-06T17:21:54.509Z,5.22
2023-10-06T17:25:21.269Z,4.53
2023-10-06T17:28:47.547Z,5.07
2023-10-06T17:32:14.836Z,5.60
2023-10-06T17:35:40.701Z,5.55
2023-10-06T17:39:09.281Z,9.75
2023-10-06T17:42:36.349Z,5.90
2023-10-06T17:46:01.922Z,7.25
2023-10-06T17:49:29.120Z,6.80
2023-10-06T17:52:54.574Z,6.05
2023-10-06T17:56:23.061Z,7.22
2023-10-06T17:59:49.309Z,7.47
2023-10-06T18:03:15.216Z,6.65
2023-10-06T18:06:41.039Z,5.75
2023-10-06T18:10:09.854Z,5.78
2023-10-06T18:13:40.485Z,5.30
2023-10-06T18:17:08.142Z,5.78
2023-10-06T18:20:33.537Z,9.48
2023-10-06T18:23:59.983Z,5.55
2023-10-06T18:27:26.760Z,7.60
2023-10-06T18:30:55.218Z,8.13
2023-10-06T18:34:20.641Z,8.60
2023-10-06T18:37:46.546Z,8.75
2023-10-06T18:41:14.150Z,8.38
2023-10-06T18:44:40.124Z,7.70
2023-10-06T18:48:08.700Z,8.45
2023-10-06T18:51:34.650Z,9.55
2023-10-06T18:55:00.063Z,10.82
2023-10-06T18:58:28.539Z,14.50
2023-10-06T19:01:55.573Z,11.65
2023-10-06T19:05:24.140Z,13.68
2023-10-06T19:08:51.995Z,13.05
2023-10-06T19:12:18.673Z,10.07
2023-10-06T19:15:47.784Z,12.10
2023-10-06T19:19:13.632Z,10.25
2023-10-06T19:22:41.905Z,11.40
2023-10-06T19:26:10.030Z,9.25
2023-10-06T19:29:35.744Z,11.18
2023-10-06T19:33:01.607Z,9.82
2023-10-06T19:36:27.254Z,8.00
2023-10-06T19:39:56.671Z,8.95
2023-10-06T19:43:23.121Z,8.90
2023-10-06T19:46:49.509Z,7.43
2023-10-06T19:50:16.568Z,10.20
2023-10-06T19:53:42.644Z,9.30
2023-10-06T19:57:10.672Z,9.98
2023-10-06T20:00:36.590Z,7.90
2023-10-06T20:04:02.501Z,11.10
2023-10-06T20:07:28.389Z,8.52
2023-10-06T20:10:57.491Z,7.07
2023-10-06T20:14:27.187Z,9.23
2023-10-06T20:17:52.761Z,8.43
2023-10-06T20:21:19.225Z,7.00
2023-10-06T20:24:44.683Z,9.00
2023-10-06T20:28:11.517Z,7.18
2023-10-06T20:31:39.857Z,8.05
2023-10-06T20:35:05.715Z,6.25
2023-10-06T20:38:34.834Z,7.95
2023-10-06T20:42:00.893Z,6.88
2023-10-06T20:45:28.246Z,7.85
2023-10-06T20:48:57.446Z,5.93
2023-10-06T20:52:22.997Z,6.25
2023-10-06T20:55:48.809Z,6.10
2023-10-06T20:59:14.820Z,8.32
2023-10-06T21:02:41.373Z,8.48
2023-10-06T21:06:10.975Z,6.25
2023-10-06T21:09:36.841Z,5.97
2023-10-06T21:13:02.234Z,9.73
2023-10-06T21:16:28.488Z,7.28
2023-10-06T21:19:54.995Z,7.43
2023-10-06T21:23:30.716Z,6.75
2023-10-06T21:26:56.291Z,6.88
2023-10-06T21:30:23.699Z,5.07
2023-10-06T21:33:49.330Z,5.65
2023-10-06T21:37:16.956Z,6.57
2023-10-06T21:40:46.054Z,7.68
2023-10-06T21:44:12.038Z,6.28
2023-10-06T21:47:37.837Z,8.45
2023-10-06T21:51:04.234Z,5.28
2023-10-06T21:54:32.181Z,6.75
2023-10-06T21:58:01.033Z,5.57
2023-10-06T22:01:27.741Z,4.88
2023-10-06T22:04:54.396Z,5.35
2023-10-06T22:08:19.896Z,5.20
2023-10-06T22:11:49.336Z,5.43
2023-10-06T22:15:17.490Z,4.35
2023-10-06T22:18:43.856Z,5.07
2023-10-06T22:22:09.318Z,4.53
2023-10-06T22:25:36.361Z,5.53
2023-10-06T22:29:04.243Z,6.00
2023-10-06T22:32:32.757Z,7.45
2023-10-06T22:35:58.317Z,4.45
2023-10-06T22:39:24.536Z,3.85
2023-10-06T22:42:50.358Z,4.38
2023-10-06T22:46:16.266Z,5.40
2023-10-06T22:49:44.629Z,7.25
2023-10-06T22:53:11.097Z,5.28
2023-10-06T22:56:36.512Z,5.85
2023-10-06T23:00:03.228Z,5.72
2023-10-06T23:03:31.036Z,5.43
2023-10-06T23:07:01.264Z,5.15
2023-10-06T23:10:28.477Z,5.93
2023-10-06T23:13:54.777Z,4.13
2023-10-06T23:17:20.391Z,5.32
2023-10-06T23:20:47.655Z,4.95
2023-10-06T23:24:18.484Z,5.70
2023-10-06T23:27:44.680Z,5.50
2023-10-06T23:31:10.716Z,7.47
2023-10-06T23:34:39.217Z,5.18
2023-10-06T23:38:08.309Z,5.53
2023-10-06T23:41:38.852Z,3.08
2023-10-06T23:45:06.503Z,6.10
2023-10-06T23:48:33.237Z,6.10
2023-10-06T23:51:58.749Z,6.97
2023-10-06T23:55:25.146Z,4.85
2023-10-06T23:58:54.393Z,5.13
